sensor_id;sensor_type;location;lat;lon;timestamp;temperature;humidity
43183;DHT22;28802;38.578;-0.066;2023-07-29T00:00:35;27.60;99.90
43183;DHT22;28802;38.578;-0.066;2023-07-29T00:03:01;27.50;99.90
43183;DHT22;28802;38.578;-0.066;2023-07-29T00:05:27;27.50;99.90
43183;DHT22;28802;38.578;-0.066;2023-07-29T00:07:53;27.50;99.90
43183;DHT22;28802;38.578;-0.066;2023-07-29T00:10:18;27.50;99.90
43183;DHT22;28802;38.578;-0.066;2023-07-29T00:12:45;27.50;99.90
43183;DHT22;28802;38.578;-0.066;2023-07-29T00:15:11;27.50;99.90
43183;DHT22;28802;38.578;-0.066;2023-07-29T00:17:37;27.50;99.90
43183;DHT22;28802;38.578;-0.066;2023-07-29T00:20:03;27.40;99.90
43183;DHT22;28802;38.578;-0.066;2023-07-29T00:22:30;27.40;99.90
43183;DHT22;28802;38.578;-0.066;2023-07-29T00:24:56;27.40;99.90
43183;DHT22;28802;38.578;-0.066;2023-07-29T00:27:25;27.30;99.90
43183;DHT22;28802;38.578;-0.066;2023-07-29T00:29:51;27.30;99.90
43183;DHT22;28802;38.578;-0.066;2023-07-29T00:32:17;27.30;99.90
43183;DHT22;28802;38.578;-0.066;2023-07-29T00:34:44;27.30;99.90
43183;DHT22;28802;38.578;-0.066;2023-07-29T00:37:10;27.30;99.90
43183;DHT22;28802;38.578;-0.066;2023-07-29T00:39:37;27.30;99.90
43183;DHT22;28802;38.578;-0.066;2023-07-29T00:42:04;27.30;99.90
43183;DHT22;28802;38.578;-0.066;2023-07-29T00:44:30;27.30;99.90
43183;DHT22;28802;38.578;-0.066;2023-07-29T00:47:02;27.20;99.90
43183;DHT22;28802;38.578;-0.066;2023-07-29T00:49:29;27.20;99.90
43183;DHT22;28802;38.578;-0.066;2023-07-29T00:51:55;27.20;99.90
43183;DHT22;28802;38.578;-0.066;2023-07-29T00:54:24;27.10;99.90
43183;DHT22;28802;38.578;-0.066;2023-07-29T00:56:50;27.10;99.90
43183;DHT22;28802;38.578;-0.066;2023-07-29T00:59:16;27.10;99.90
43183;DHT22;28802;38.578;-0.066;2023-07-29T01:01:42;27.10;99.90
43183;DHT22;28802;38.578;-0.066;2023-07-29T01:04:08;27.10;99.90
43183;DHT22;28802;38.578;-0.066;2023-07-29T01:06:42;27.00;99.90
43183;DHT22;28802;38.578;-0.066;2023-07-29T01:12:01;27.00;99.90
43183;DHT22;28802;38.578;-0.066;2023-07-29T01:17:03;27.00;99.90
43183;DHT22;28802;38.578;-0.066;2023-07-29T01:19:34;26.90;99.90
43183;DHT22;28802;38.578;-0.066;2023-07-29T01:22:08;26.90;99.90
43183;DHT22;28802;38.578;-0.066;2023-07-29T01:24:34;26.90;99.90
43183;DHT22;28802;38.578;-0.066;2023-07-29T01:27:00;26.80;99.90
43183;DHT22;28802;38.578;-0.066;2023-07-29T01:29:27;26.80;99.90
43183;DHT22;28802;38.578;-0.066;2023-07-29T01:31:56;26.70;99.90
43183;DHT22;28802;38.578;-0.066;2023-07-29T01:35:08;26.70;99.90
43183;DHT22;28802;38.578;-0.066;2023-07-29T01:37:37;26.60;99.90
43183;DHT22;28802;38.578;-0.066;2023-07-29T01:40:05;26.60;99.90
43183;DHT22;28802;38.578;-0.066;2023-07-29T01:42:33;26.50;99.90
43183;DHT22;28802;38.578;-0.066;2023-07-29T01:44:59;26.60;99.90
43183;DHT22;28802;38.578;-0.066;2023-07-29T01:47:25;26.50;99.90
43183;DHT22;28802;38.578;-0.066;2023-07-29T01:49:54;26.50;99.90
43183;DHT22;28802;38.578;-0.066;2023-07-29T01:52:20;26.50;99.90
43183;DHT22;28802;38.578;-0.066;2023-07-29T01:54:46;26.50;99.90
43183;DHT22;28802;38.578;-0.066;2023-07-29T01:57:11;26.50;99.90
43183;DHT22;28802;38.578;-0.066;2023-07-29T01:59:38;26.50;99.90
43183;DHT22;28802;38.578;-0.066;2023-07-29T02:02:04;26.40;99.90
43183;DHT22;28802;38.578;-0.066;2023-07-29T02:04:29;26.40;99.90
43183;DHT22;28802;38.578;-0.066;2023-07-29T02:06:55;26.30;99.90
43183;DHT22;28802;38.578;-0.066;2023-07-29T02:09:21;26.20;99.90
43183;DHT22;28802;38.578;-0.066;2023-07-29T02:11:47;26.20;99.90
43183;DHT22;28802;38.578;-0.066;2023-07-29T02:14:13;26.20;99.90
43183;DHT22;28802;38.578;-0.066;2023-07-29T02:16:39;26.20;99.90
43183;DHT22;28802;38.578;-0.066;2023-07-29T02:19:05;26.20;99.90
43183;DHT22;28802;38.578;-0.066;2023-07-29T02:21:31;26.20;99.90
43183;DHT22;28802;38.578;-0.066;2023-07-29T02:23:57;26.10;99.90
43183;DHT22;28802;38.578;-0.066;2023-07-29T02:26:23;26.10;99.90
43183;DHT22;28802;38.578;-0.066;2023-07-29T02:28:49;26.10;99.90
43183;DHT22;28802;38.578;-0.066;2023-07-29T02:31:20;26.00;99.90
43183;DHT22;28802;38.578;-0.066;2023-07-29T02:33:47;26.00;99.90
43183;DHT22;28802;38.578;-0.066;2023-07-29T02:36:13;26.00;99.90
43183;DHT22;28802;38.578;-0.066;2023-07-29T02:38:40;26.10;99.90
43183;DHT22;28802;38.578;-0.066;2023-07-29T02:41:06;26.10;99.90
43183;DHT22;28802;38.578;-0.066;2023-07-29T02:43:34;26.00;99.90
43183;DHT22;28802;38.578;-0.066;2023-07-29T02:46:00;26.00;99.90
43183;DHT22;28802;38.578;-0.066;2023-07-29T02:48:26;26.00;99.90
43183;DHT22;28802;38.578;-0.066;2023-07-29T02:50:52;26.00;99.90
43183;DHT22;28802;38.578;-0.066;2023-07-29T02:53:17;26.00;99.90
43183;DHT22;28802;38.578;-0.066;2023-07-29T02:55:46;25.90;99.90
43183;DHT22;28802;38.578;-0.066;2023-07-29T02:58:12;25.80;99.90
43183;DHT22;28802;38.578;-0.066;2023-07-29T03:00:38;25.80;99.90
43183;DHT22;28802;38.578;-0.066;2023-07-29T03:03:08;25.80;99.90
43183;DHT22;28802;38.578;-0.066;2023-07-29T03:05:34;25.70;99.90
43183;DHT22;28802;38.578;-0.066;2023-07-29T03:08:00;25.70;99.90
43183;DHT22;28802;38.578;-0.066;2023-07-29T03:10:26;25.60;99.90
43183;DHT22;28802;38.578;-0.066;2023-07-29T03:12:54;25.60;99.90
43183;DHT22;28802;38.578;-0.066;2023-07-29T03:15:23;25.60;99.90
43183;DHT22;28802;38.578;-0.066;2023-07-29T03:17:51;25.60;99.90
43183;DHT22;28802;38.578;-0.066;2023-07-29T03:20:17;25.60;99.90
43183;DHT22;28802;38.578;-0.066;2023-07-29T03:22:46;25.50;99.90
43183;DHT22;28802;38.578;-0.066;2023-07-29T03:25:13;25.50;99.90
43183;DHT22;28802;38.578;-0.066;2023-07-29T03:27:39;25.50;99.90
43183;DHT22;28802;38.578;-0.066;2023-07-29T03:30:08;25.50;99.90
43183;DHT22;28802;38.578;-0.066;2023-07-29T03:32:34;25.50;99.90
43183;DHT22;28802;38.578;-0.066;2023-07-29T03:35:00;25.50;99.90
43183;DHT22;28802;38.578;-0.066;2023-07-29T03:37:26;25.40;99.90
43183;DHT22;28802;38.578;-0.066;2023-07-29T03:39:52;25.30;99.90
43183;DHT22;28802;38.578;-0.066;2023-07-29T03:42:18;25.30;99.90
43183;DHT22;28802;38.578;-0.066;2023-07-29T03:44:44;25.30;99.90
43183;DHT22;28802;38.578;-0.066;2023-07-29T03:47:10;25.30;99.90
43183;DHT22;28802;38.578;-0.066;2023-07-29T03:49:38;25.30;99.90
43183;DHT22;28802;38.578;-0.066;2023-07-29T03:52:06;25.30;99.90
43183;DHT22;28802;38.578;-0.066;2023-07-29T03:54:32;25.30;99.90
43183;DHT22;28802;38.578;-0.066;2023-07-29T03:56:58;25.30;99.90
43183;DHT22;28802;38.578;-0.066;2023-07-29T03:59:24;25.30;99.90
43183;DHT22;28802;38.578;-0.066;2023-07-29T04:01:50;25.30;99.90
43183;DHT22;28802;38.578;-0.066;2023-07-29T04:04:16;25.30;99.90
43183;DHT22;28802;38.578;-0.066;2023-07-29T04:06:42;25.30;99.90
43183;DHT22;28802;38.578;-0.066;2023-07-29T04:09:08;25.30;99.90
43183;DHT22;28802;38.578;-0.066;2023-07-29T04:11:34;25.30;99.90
43183;DHT22;28802;38.578;-0.066;2023-07-29T04:14:04;25.40;99.90
43183;DHT22;28802;38.578;-0.066;2023-07-29T04:16:30;25.30;99.90
43183;DHT22;28802;38.578;-0.066;2023-07-29T04:18:56;25.30;99.90
43183;DHT22;28802;38.578;-0.066;2023-07-29T04:21:22;25.30;99.90
43183;DHT22;28802;38.578;-0.066;2023-07-29T04:23:48;25.30;99.90
43183;DHT22;28802;38.578;-0.066;2023-07-29T04:26:13;25.20;99.90
43183;DHT22;28802;38.578;-0.066;2023-07-29T04:28:39;25.20;99.90
43183;DHT22;28802;38.578;-0.066;2023-07-29T04:31:08;25.20;99.90
43183;DHT22;28802;38.578;-0.066;2023-07-29T04:33:34;25.20;99.90
43183;DHT22;28802;38.578;-0.066;2023-07-29T04:36:00;25.20;99.90
43183;DHT22;28802;38.578;-0.066;2023-07-29T04:38:31;25.20;99.90
43183;DHT22;28802;38.578;-0.066;2023-07-29T04:41:00;25.20;99.90
43183;DHT22;28802;38.578;-0.066;2023-07-29T04:43:29;25.20;99.90
43183;DHT22;28802;38.578;-0.066;2023-07-29T04:45:55;25.20;99.90
43183;DHT22;28802;38.578;-0.066;2023-07-29T04:48:22;25.20;99.90
43183;DHT22;28802;38.578;-0.066;2023-07-29T04:50:48;25.20;99.90
43183;DHT22;28802;38.578;-0.066;2023-07-29T04:53:14;25.20;99.90
43183;DHT22;28802;38.578;-0.066;2023-07-29T04:55:43;25.20;99.90
43183;DHT22;28802;38.578;-0.066;2023-07-29T04:58:09;25.20;99.90
43183;DHT22;28802;38.578;-0.066;2023-07-29T05:00:36;25.20;99.90
43183;DHT22;28802;38.578;-0.066;2023-07-29T05:03:02;25.10;99.90
43183;DHT22;28802;38.578;-0.066;2023-07-29T05:05:28;25.20;99.90
43183;DHT22;28802;38.578;-0.066;2023-07-29T05:07:55;25.10;99.90
43183;DHT22;28802;38.578;-0.066;2023-07-29T05:10:21;25.20;99.90
43183;DHT22;28802;38.578;-0.066;2023-07-29T05:12:47;25.20;99.90
43183;DHT22;28802;38.578;-0.066;2023-07-29T05:15:13;25.20;99.90
43183;DHT22;28802;38.578;-0.066;2023-07-29T05:17:39;25.20;99.90
43183;DHT22;28802;38.578;-0.066;2023-07-29T05:20:06;25.20;99.90
43183;DHT22;28802;38.578;-0.066;2023-07-29T05:22:32;25.20;99.90
43183;DHT22;28802;38.578;-0.066;2023-07-29T05:24:58;25.30;99.90
43183;DHT22;28802;38.578;-0.066;2023-07-29T05:27:24;25.20;99.90
43183;DHT22;28802;38.578;-0.066;2023-07-29T05:29:50;25.20;99.90
43183;DHT22;28802;38.578;-0.066;2023-07-29T05:32:16;25.20;99.90
43183;DHT22;28802;38.578;-0.066;2023-07-29T05:34:42;25.30;99.90
43183;DHT22;28802;38.578;-0.066;2023-07-29T05:37:07;25.40;99.90
43183;DHT22;28802;38.578;-0.066;2023-07-29T05:39:34;25.50;99.90
43183;DHT22;28802;38.578;-0.066;2023-07-29T05:42:00;25.50;99.90
43183;DHT22;28802;38.578;-0.066;2023-07-29T05:44:28;25.70;99.90
43183;DHT22;28802;38.578;-0.066;2023-07-29T05:46:56;26.10;99.90
43183;DHT22;28802;38.578;-0.066;2023-07-29T05:49:22;26.50;99.90
43183;DHT22;28802;38.578;-0.066;2023-07-29T05:51:49;27.00;99.90
43183;DHT22;28802;38.578;-0.066;2023-07-29T05:54:17;27.40;99.90
43183;DHT22;28802;38.578;-0.066;2023-07-29T05:56:43;27.50;99.90
43183;DHT22;28802;38.578;-0.066;2023-07-29T05:59:09;27.80;99.90
43183;DHT22;28802;38.578;-0.066;2023-07-29T06:01:35;28.30;99.90
43183;DHT22;28802;38.578;-0.066;2023-07-29T06:04:01;28.30;99.90
43183;DHT22;28802;38.578;-0.066;2023-07-29T06:06:27;28.80;99.90
43183;DHT22;28802;38.578;-0.066;2023-07-29T06:08:53;29.40;99.90
43183;DHT22;28802;38.578;-0.066;2023-07-29T06:11:19;29.60;99.90
43183;DHT22;28802;38.578;-0.066;2023-07-29T06:13:47;29.60;99.90
43183;DHT22;28802;38.578;-0.066;2023-07-29T06:16:14;29.90;99.90
43183;DHT22;28802;38.578;-0.066;2023-07-29T06:18:41;30.40;99.90
43183;DHT22;28802;38.578;-0.066;2023-07-29T06:21:07;30.90;99.90
43183;DHT22;28802;38.578;-0.066;2023-07-29T06:23:34;31.30;99.90
43183;DHT22;28802;38.578;-0.066;2023-07-29T06:26:00;31.70;99.90
43183;DHT22;28802;38.578;-0.066;2023-07-29T06:28:28;32.10;99.90
43183;DHT22;28802;38.578;-0.066;2023-07-29T06:30:54;32.50;99.90
43183;DHT22;28802;38.578;-0.066;2023-07-29T06:33:20;32.20;99.90
43183;DHT22;28802;38.578;-0.066;2023-07-29T06:35:46;31.90;99.90
43183;DHT22;28802;38.578;-0.066;2023-07-29T06:38:12;31.50;99.90
43183;DHT22;28802;38.578;-0.066;2023-07-29T06:40:38;31.40;99.90
43183;DHT22;28802;38.578;-0.066;2023-07-29T06:43:04;31.30;99.90
43183;DHT22;28802;38.578;-0.066;2023-07-29T06:45:30;31.10;99.90
43183;DHT22;28802;38.578;-0.066;2023-07-29T06:47:56;31.00;99.90
43183;DHT22;28802;38.578;-0.066;2023-07-29T06:50:22;31.10;99.90
43183;DHT22;28802;38.578;-0.066;2023-07-29T06:52:47;31.00;99.90
43183;DHT22;28802;38.578;-0.066;2023-07-29T06:55:13;30.90;99.90
43183;DHT22;28802;38.578;-0.066;2023-07-29T06:57:39;30.90;99.90
43183;DHT22;28802;38.578;-0.066;2023-07-29T07:00:06;30.90;99.90
43183;DHT22;28802;38.578;-0.066;2023-07-29T07:02:32;30.90;99.90
43183;DHT22;28802;38.578;-0.066;2023-07-29T07:04:57;30.90;99.90
43183;DHT22;28802;38.578;-0.066;2023-07-29T07:07:23;30.90;99.90
43183;DHT22;28802;38.578;-0.066;2023-07-29T07:09:49;30.90;99.90
43183;DHT22;28802;38.578;-0.066;2023-07-29T07:12:15;30.70;99.90
43183;DHT22;28802;38.578;-0.066;2023-07-29T07:14:41;30.90;99.90
43183;DHT22;28802;38.578;-0.066;2023-07-29T07:17:07;30.60;99.90
43183;DHT22;28802;38.578;-0.066;2023-07-29T07:19:33;30.50;99.90
43183;DHT22;28802;38.578;-0.066;2023-07-29T07:21:59;31.20;99.90
43183;DHT22;28802;38.578;-0.066;2023-07-29T07:24:24;31.00;99.90
43183;DHT22;28802;38.578;-0.066;2023-07-29T07:26:50;31.40;99.90
43183;DHT22;28802;38.578;-0.066;2023-07-29T07:29:16;32.40;99.90
43183;DHT22;28802;38.578;-0.066;2023-07-29T07:31:50;33.20;99.90
43183;DHT22;28802;38.578;-0.066;2023-07-29T07:34:17;34.30;99.90
43183;DHT22;28802;38.578;-0.066;2023-07-29T07:36:43;34.70;99.90
43183;DHT22;28802;38.578;-0.066;2023-07-29T07:39:09;35.50;99.90
43183;DHT22;28802;38.578;-0.066;2023-07-29T07:41:35;36.10;99.90
43183;DHT22;28802;38.578;-0.066;2023-07-29T07:44:01;36.00;99.90
43183;DHT22;28802;38.578;-0.066;2023-07-29T07:46:26;35.60;99.90
43183;DHT22;28802;38.578;-0.066;2023-07-29T07:48:52;35.60;99.90
43183;DHT22;28802;38.578;-0.066;2023-07-29T07:51:18;35.40;99.90
43183;DHT22;28802;38.578;-0.066;2023-07-29T07:53:44;34.40;99.90
43183;DHT22;28802;38.578;-0.066;2023-07-29T07:56:10;33.20;99.90
43183;DHT22;28802;38.578;-0.066;2023-07-29T07:58:36;32.20;99.90
43183;DHT22;28802;38.578;-0.066;2023-07-29T08:01:05;31.60;99.90
43183;DHT22;28802;38.578;-0.066;2023-07-29T08:03:32;31.60;99.90
43183;DHT22;28802;38.578;-0.066;2023-07-29T08:05:58;31.70;99.90
43183;DHT22;28802;38.578;-0.066;2023-07-29T08:08:26;31.80;99.90
43183;DHT22;28802;38.578;-0.066;2023-07-29T08:10:56;32.50;99.90
43183;DHT22;28802;38.578;-0.066;2023-07-29T08:13:26;32.80;99.90
43183;DHT22;28802;38.578;-0.066;2023-07-29T08:15:52;32.80;99.90
43183;DHT22;28802;38.578;-0.066;2023-07-29T08:18:18;32.20;99.90
43183;DHT22;28802;38.578;-0.066;2023-07-29T08:20:57;31.60;99.90
43183;DHT22;28802;38.578;-0.066;2023-07-29T08:23:25;31.00;99.90
43183;DHT22;28802;38.578;-0.066;2023-07-29T08:25:56;31.10;99.90
43183;DHT22;28802;38.578;-0.066;2023-07-29T08:28:30;31.30;99.90
43183;DHT22;28802;38.578;-0.066;2023-07-29T08:30:57;31.60;99.90
43183;DHT22;28802;38.578;-0.066;2023-07-29T08:33:23;31.70;99.90
43183;DHT22;28802;38.578;-0.066;2023-07-29T08:35:49;31.60;99.90
43183;DHT22;28802;38.578;-0.066;2023-07-29T08:38:15;31.30;99.90
43183;DHT22;28802;38.578;-0.066;2023-07-29T08:43:32;31.50;99.90
43183;DHT22;28802;38.578;-0.066;2023-07-29T08:45:59;31.60;99.90
43183;DHT22;28802;38.578;-0.066;2023-07-29T08:48:42;31.40;99.90
43183;DHT22;28802;38.578;-0.066;2023-07-29T08:51:10;31.00;99.90
43183;DHT22;28802;38.578;-0.066;2023-07-29T08:53:37;30.90;99.90
43183;DHT22;28802;38.578;-0.066;2023-07-29T08:56:03;30.40;99.90
43183;DHT22;28802;38.578;-0.066;2023-07-29T08:58:29;30.10;99.90
43183;DHT22;28802;38.578;-0.066;2023-07-29T09:00:55;30.20;99.90
43183;DHT22;28802;38.578;-0.066;2023-07-29T09:03:21;29.80;99.90
43183;DHT22;28802;38.578;-0.066;2023-07-29T09:05:47;29.40;99.90
43183;DHT22;28802;38.578;-0.066;2023-07-29T09:08:14;29.40;99.90
43183;DHT22;28802;38.578;-0.066;2023-07-29T09:10:40;30.00;99.90
43183;DHT22;28802;38.578;-0.066;2023-07-29T09:13:07;30.30;99.90
43183;DHT22;28802;38.578;-0.066;2023-07-29T09:15:35;30.60;99.90
43183;DHT22;28802;38.578;-0.066;2023-07-29T09:18:17;30.70;99.90
43183;DHT22;28802;38.578;-0.066;2023-07-29T09:20:46;30.70;99.90
43183;DHT22;28802;38.578;-0.066;2023-07-29T09:23:13;30.90;99.90
43183;DHT22;28802;38.578;-0.066;2023-07-29T09:25:39;31.10;99.90
43183;DHT22;28802;38.578;-0.066;2023-07-29T09:28:13;31.50;99.90
43183;DHT22;28802;38.578;-0.066;2023-07-29T09:30:41;31.70;99.90
43183;DHT22;28802;38.578;-0.066;2023-07-29T09:33:09;31.60;99.90
43183;DHT22;28802;38.578;-0.066;2023-07-29T09:35:36;31.00;99.90
43183;DHT22;28802;38.578;-0.066;2023-07-29T09:38:03;30.20;99.90
43183;DHT22;28802;38.578;-0.066;2023-07-29T09:40:40;30.20;99.90
43183;DHT22;28802;38.578;-0.066;2023-07-29T09:43:08;30.70;99.90
43183;DHT22;28802;38.578;-0.066;2023-07-29T09:45:35;31.30;99.90
43183;DHT22;28802;38.578;-0.066;2023-07-29T09:48:02;31.70;99.90
43183;DHT22;28802;38.578;-0.066;2023-07-29T09:50:29;31.80;99.90
43183;DHT22;28802;38.578;-0.066;2023-07-29T09:52:55;31.90;99.90
43183;DHT22;28802;38.578;-0.066;2023-07-29T09:55:24;31.70;99.90
43183;DHT22;28802;38.578;-0.066;2023-07-29T09:57:55;31.90;99.90
43183;DHT22;28802;38.578;-0.066;2023-07-29T10:00:21;32.10;99.90
43183;DHT22;28802;38.578;-0.066;2023-07-29T10:02:48;32.80;99.90
43183;DHT22;28802;38.578;-0.066;2023-07-29T10:05:14;32.20;99.90
43183;DHT22;28802;38.578;-0.066;2023-07-29T10:07:40;31.30;99.90
43183;DHT22;28802;38.578;-0.066;2023-07-29T10:10:07;31.40;99.90
43183;DHT22;28802;38.578;-0.066;2023-07-29T10:12:35;31.20;99.90
43183;DHT22;28802;38.578;-0.066;2023-07-29T10:15:03;30.10;99.90
43183;DHT22;28802;38.578;-0.066;2023-07-29T10:17:30;29.80;99.90
43183;DHT22;28802;38.578;-0.066;2023-07-29T10:19:59;30.00;99.90
43183;DHT22;28802;38.578;-0.066;2023-07-29T10:22:28;30.30;99.90
43183;DHT22;28802;38.578;-0.066;2023-07-29T10:24:59;30.60;99.90
43183;DHT22;28802;38.578;-0.066;2023-07-29T10:27:28;30.50;99.90
43183;DHT22;28802;38.578;-0.066;2023-07-29T10:29:55;30.60;99.90
43183;DHT22;28802;38.578;-0.066;2023-07-29T10:32:25;30.60;99.90
43183;DHT22;28802;38.578;-0.066;2023-07-29T10:34:52;30.40;99.90
43183;DHT22;28802;38.578;-0.066;2023-07-29T10:37:18;30.50;99.90
43183;DHT22;28802;38.578;-0.066;2023-07-29T10:39:53;30.30;99.90
43183;DHT22;28802;38.578;-0.066;2023-07-29T10:42:19;30.90;99.90
43183;DHT22;28802;38.578;-0.066;2023-07-29T10:44:46;32.10;99.90
43183;DHT22;28802;38.578;-0.066;2023-07-29T10:47:22;32.20;99.90
43183;DHT22;28802;38.578;-0.066;2023-07-29T10:49:53;31.40;99.90
43183;DHT22;28802;38.578;-0.066;2023-07-29T10:54:56;31.50;99.90
43183;DHT22;28802;38.578;-0.066;2023-07-29T10:57:50;30.50;99.90
43183;DHT22;28802;38.578;-0.066;2023-07-29T11:00:18;30.20;99.90
43183;DHT22;28802;38.578;-0.066;2023-07-29T11:02:58;30.60;99.90
43183;DHT22;28802;38.578;-0.066;2023-07-29T11:05:25;30.80;99.90
43183;DHT22;28802;38.578;-0.066;2023-07-29T11:07:51;30.30;99.90
43183;DHT22;28802;38.578;-0.066;2023-07-29T11:10:17;30.80;99.90
43183;DHT22;28802;38.578;-0.066;2023-07-29T11:17:46;30.70;99.90
43183;DHT22;28802;38.578;-0.066;2023-07-29T11:20:13;31.20;99.90
43183;DHT22;28802;38.578;-0.066;2023-07-29T11:22:40;31.60;99.90
43183;DHT22;28802;38.578;-0.066;2023-07-29T11:25:09;31.90;99.90
43183;DHT22;28802;38.578;-0.066;2023-07-29T11:27:36;31.70;99.90
43183;DHT22;28802;38.578;-0.066;2023-07-29T11:30:07;31.40;99.90
43183;DHT22;28802;38.578;-0.066;2023-07-29T11:32:37;32.80;99.90
43183;DHT22;28802;38.578;-0.066;2023-07-29T11:35:11;34.10;99.90
43183;DHT22;28802;38.578;-0.066;2023-07-29T11:37:39;33.50;99.90
43183;DHT22;28802;38.578;-0.066;2023-07-29T11:40:06;33.70;99.90
43183;DHT22;28802;38.578;-0.066;2023-07-29T11:42:33;33.20;99.90
43183;DHT22;28802;38.578;-0.066;2023-07-29T11:45:00;33.00;99.90
43183;DHT22;28802;38.578;-0.066;2023-07-29T11:47:26;33.40;99.90
43183;DHT22;28802;38.578;-0.066;2023-07-29T11:49:52;32.60;99.90
43183;DHT22;28802;38.578;-0.066;2023-07-29T11:52:19;32.30;99.90
43183;DHT22;28802;38.578;-0.066;2023-07-29T11:54:48;32.50;99.90
43183;DHT22;28802;38.578;-0.066;2023-07-29T11:57:16;33.00;99.90
43183;DHT22;28802;38.578;-0.066;2023-07-29T11:59:42;33.80;99.90
43183;DHT22;28802;38.578;-0.066;2023-07-29T12:02:16;33.40;99.90
43183;DHT22;28802;38.578;-0.066;2023-07-29T12:04:43;32.40;99.90
43183;DHT22;28802;38.578;-0.066;2023-07-29T12:07:10;32.20;99.90
43183;DHT22;28802;38.578;-0.066;2023-07-29T12:09:38;32.40;99.90
43183;DHT22;28802;38.578;-0.066;2023-07-29T12:12:06;33.30;99.90
43183;DHT22;28802;38.578;-0.066;2023-07-29T12:14:32;32.50;99.90
43183;DHT22;28802;38.578;-0.066;2023-07-29T12:17:05;32.70;99.90
43183;DHT22;28802;38.578;-0.066;2023-07-29T12:19:35;31.90;99.90
43183;DHT22;28802;38.578;-0.066;2023-07-29T12:22:03;31.90;99.90
43183;DHT22;28802;38.578;-0.066;2023-07-29T12:24:30;32.50;99.90
43183;DHT22;28802;38.578;-0.066;2023-07-29T12:26:57;32.20;99.90
43183;DHT22;28802;38.578;-0.066;2023-07-29T12:29:22;33.00;99.90
43183;DHT22;28802;38.578;-0.066;2023-07-29T12:31:49;33.50;99.90
43183;DHT22;28802;38.578;-0.066;2023-07-29T12:34:22;34.40;99.90
43183;DHT22;28802;38.578;-0.066;2023-07-29T12:36:49;34.40;99.90
43183;DHT22;28802;38.578;-0.066;2023-07-29T12:39:17;34.30;99.90
43183;DHT22;28802;38.578;-0.066;2023-07-29T12:41:43;34.60;99.90
43183;DHT22;28802;38.578;-0.066;2023-07-29T12:44:09;34.30;99.90
43183;DHT22;28802;38.578;-0.066;2023-07-29T12:46:35;34.30;99.90
43183;DHT22;28802;38.578;-0.066;2023-07-29T12:49:01;33.60;99.90
43183;DHT22;28802;38.578;-0.066;2023-07-29T12:51:27;33.60;99.90
43183;DHT22;28802;38.578;-0.066;2023-07-29T12:53:54;32.90;99.90
43183;DHT22;28802;38.578;-0.066;2023-07-29T12:56:20;32.70;99.90
43183;DHT22;28802;38.578;-0.066;2023-07-29T12:58:46;32.70;99.90
43183;DHT22;28802;38.578;-0.066;2023-07-29T13:01:12;32.70;99.90
43183;DHT22;28802;38.578;-0.066;2023-07-29T13:03:44;33.00;99.90
43183;DHT22;28802;38.578;-0.066;2023-07-29T13:06:10;33.20;99.90
43183;DHT22;28802;38.578;-0.066;2023-07-29T13:08:36;33.20;99.90
43183;DHT22;28802;38.578;-0.066;2023-07-29T13:11:02;32.80;99.90
43183;DHT22;28802;38.578;-0.066;2023-07-29T13:13:29;32.60;99.90
43183;DHT22;28802;38.578;-0.066;2023-07-29T13:15:55;32.40;99.90
43183;DHT22;28802;38.578;-0.066;2023-07-29T13:18:21;32.30;99.90
43183;DHT22;28802;38.578;-0.066;2023-07-29T13:20:47;32.30;99.90
43183;DHT22;28802;38.578;-0.066;2023-07-29T13:23:13;32.40;99.90
43183;DHT22;28802;38.578;-0.066;2023-07-29T13:25:39;32.20;99.90
43183;DHT22;28802;38.578;-0.066;2023-07-29T13:28:05;32.20;99.90
43183;DHT22;28802;38.578;-0.066;2023-07-29T13:30:31;32.20;99.90
43183;DHT22;28802;38.578;-0.066;2023-07-29T13:32:57;32.30;99.90
43183;DHT22;28802;38.578;-0.066;2023-07-29T13:35:23;32.60;99.90
43183;DHT22;28802;38.578;-0.066;2023-07-29T13:37:49;32.50;99.90
43183;DHT22;28802;38.578;-0.066;2023-07-29T13:40:15;32.20;99.90
43183;DHT22;28802;38.578;-0.066;2023-07-29T13:42:40;32.20;99.90
43183;DHT22;28802;38.578;-0.066;2023-07-29T13:45:07;32.40;99.90
43183;DHT22;28802;38.578;-0.066;2023-07-29T13:47:33;32.40;99.90
43183;DHT22;28802;38.578;-0.066;2023-07-29T13:49:59;32.20;99.90
43183;DHT22;28802;38.578;-0.066;2023-07-29T13:52:26;32.10;99.90
43183;DHT22;28802;38.578;-0.066;2023-07-29T13:54:51;32.00;99.90
43183;DHT22;28802;38.578;-0.066;2023-07-29T13:57:17;31.90;99.90
43183;DHT22;28802;38.578;-0.066;2023-07-29T13:59:43;31.90;99.90
43183;DHT22;28802;38.578;-0.066;2023-07-29T14:02:09;32.10;99.90
43183;DHT22;28802;38.578;-0.066;2023-07-29T14:04:35;32.20;99.90
43183;DHT22;28802;38.578;-0.066;2023-07-29T14:07:01;32.10;99.90
43183;DHT22;28802;38.578;-0.066;2023-07-29T14:09:27;32.10;99.90
43183;DHT22;28802;38.578;-0.066;2023-07-29T14:11:56;32.10;99.90
43183;DHT22;28802;38.578;-0.066;2023-07-29T14:14:22;32.20;99.90
43183;DHT22;28802;38.578;-0.066;2023-07-29T14:16:48;31.60;99.90
43183;DHT22;28802;38.578;-0.066;2023-07-29T14:19:14;31.70;99.90
43183;DHT22;28802;38.578;-0.066;2023-07-29T14:21:40;31.60;99.90
43183;DHT22;28802;38.578;-0.066;2023-07-29T14:24:06;31.70;99.90
43183;DHT22;28802;38.578;-0.066;2023-07-29T14:26:32;31.70;99.90
43183;DHT22;28802;38.578;-0.066;2023-07-29T14:28:58;31.80;99.90
43183;DHT22;28802;38.578;-0.066;2023-07-29T14:31:24;31.80;99.90
43183;DHT22;28802;38.578;-0.066;2023-07-29T14:33:50;31.50;99.90
43183;DHT22;28802;38.578;-0.066;2023-07-29T14:36:16;31.60;99.90
43183;DHT22;28802;38.578;-0.066;2023-07-29T14:38:42;31.60;99.90
43183;DHT22;28802;38.578;-0.066;2023-07-29T14:41:08;31.70;99.90
43183;DHT22;28802;38.578;-0.066;2023-07-29T14:43:35;31.90;99.90
43183;DHT22;28802;38.578;-0.066;2023-07-29T14:46:01;31.80;99.90
43183;DHT22;28802;38.578;-0.066;2023-07-29T14:48:28;31.60;99.90
43183;DHT22;28802;38.578;-0.066;2023-07-29T14:50:54;31.60;99.90
43183;DHT22;28802;38.578;-0.066;2023-07-29T14:53:20;31.90;99.90
43183;DHT22;28802;38.578;-0.066;2023-07-29T14:55:46;31.80;99.90
43183;DHT22;28802;38.578;-0.066;2023-07-29T14:58:12;31.70;99.90
43183;DHT22;28802;38.578;-0.066;2023-07-29T15:00:38;31.60;99.90
43183;DHT22;28802;38.578;-0.066;2023-07-29T15:03:04;31.80;99.90
43183;DHT22;28802;38.578;-0.066;2023-07-29T15:05:29;31.80;99.90
43183;DHT22;28802;38.578;-0.066;2023-07-29T15:07:55;31.90;99.90
43183;DHT22;28802;38.578;-0.066;2023-07-29T15:10:21;32.00;99.90
43183;DHT22;28802;38.578;-0.066;2023-07-29T15:12:47;31.90;99.90
43183;DHT22;28802;38.578;-0.066;2023-07-29T15:15:13;31.90;99.90
43183;DHT22;28802;38.578;-0.066;2023-07-29T15:17:39;31.80;99.90
43183;DHT22;28802;38.578;-0.066;2023-07-29T15:20:05;31.70;99.90
43183;DHT22;28802;38.578;-0.066;2023-07-29T15:22:31;31.60;99.90
43183;DHT22;28802;38.578;-0.066;2023-07-29T15:25:00;31.40;99.90
43183;DHT22;28802;38.578;-0.066;2023-07-29T15:27:29;31.40;99.90
43183;DHT22;28802;38.578;-0.066;2023-07-29T15:29:55;31.40;99.90